Brewster, OH (44613)

9:34 AM EDT on May 23, 2015 (GMT -0400)
GET | | Change Station
CLOSE
Current Station
Personal Weather Station
Location: Strasburg, OH
Elevation: 980 ft
Nearby Weather Stations
Active Advisory: Winter Weather Statement

Elev 980 ft 40.63 °N, 81.53 °W | Updated 4 minutes ago

Clear
Clear
56.4 °F
Feels Like 56.4 °F
N
2.0
Wind Variable Wind from SSW
Gusts 2.0 mph

Today
High -- | Low -- °F
--% Chance of Precip.
Yesterday
High -- | Low -- °F
Precip. -- in
6:02 AM 8:43 PM
Waxing Crescent, 30% visible
Pressure 30.45 in
Visibility 10.0 miles
Clouds Few 20000 ft
Dew Point 44 °F
Humidity 63%
Rainfall 0.00 in
Snow Depth Not available.
UV 3 out of 12
Pollen 9.20 out of 12
Air Quality Not available.
Flu Activity Local Activity
METAR KCAK 231251Z COR 16006KT 10SM FEW200 13/M01 A3044 RMK AO2 SLP309 T01331011

More Conditions Fewer Conditions

Pressure 30.45 in
Visibility 10.0 miles
Clouds Few 20000 ft
Dew Point 44 °F
Humidity 63%
Rainfall 0.00 in
Snow Depth Not available.
UV 3 out of 12
Pollen 9.20 out of 12
Air Quality Not available.
Flu Activity Local Activity
METAR KCAK 231251Z COR 16006KT 10SM FEW200 13/M01 A3044 RMK AO2 SLP309 T01331011

More Conditions Fewer Conditions

10-Day Weather Forecast

Almanac

Astronomy

May. 23, 2015 Rise Set
Actual Time
Civil Twilight
Nautical Twilight
Astronomical Twilight
Moon
Length of Visible Light
Length of Day
Tomorrow will be .
, % of the Moon is Illuminated

Today's Extremes

State Highs State Lows

Community

WunderPhotos

Upload Photos

1,823,462 photos uploaded!

WunderBlogs® & News

Nearby

Air Quality

  Air Quality AQ Index Pollutant
Not available.

Snow Depth

Station Depth Elevation

Earthquake Activity

City Distance Mag. Time & Date
Minimum magnitude displayed is 2.5.

Coastal Water Temperatures

Place Temperature

Stations

Nearby Weather Stations

Station Location Temp. Windchill Dew Point Humidity Wind Precip. Elev Updated Type
                   
Winter Weather Statement
Statement as of 8:08 AM EDT on May 23, 2015

... Frost advisory is cancelled...

The National Weather Service in Cleveland has cancelled the frost
advisory.

Temperatures have warmed out of the 30s ending the threat of frost.